KCRX/CRX METAR and TAF weather

Enter ICAO airport designator
Station Type Date Time Source
KCRX METAR 2018/12/12 16:35 UTC NOAA

KCRX 121635Z AUTO 19007KT 10SM OVC039 09/M01 A3016 RMK AO2


Station Type Date Time Source
KCRX Decoded METAR 2018/12/12 16:35 UTC NOAA

Station name not available
Dec 12, 2018 - 11:35 AM EST / 2018.12.12 1635 UTC
Wind: from the S (190 degrees) at 8 MPH (7 KT):0
Visibility: 10 mile(s):0
Sky conditions: overcast
Temperature: 48 F (9 C)
Dew Point: 30 F (-1 C)
Relative Humidity: 49%
Pressure (altimeter): 30.16 in. Hg (1021 hPa)
ob: KCRX 121635Z AUTO 19007KT 10SM OVC039 09/M01 A3016 RMK AO2
cycle: 16

Station Type Date Time Source
KCRX TAF UTC NOAA

Error!


Example: see airport list